Time;durP1;ratioP1;P1;durP2;ratioP2;P2;SDS_P1;SDS_P2;PMS_P1;PMS_P2;Temp;Humidity;BMP_temperature;BMP_pressure;BME280_temperature;BME280_humidity;BME280_pressure;Samples;Min_cycle;Max_cycle;Signal;HPM_P1;HPM_P2
2021/11/10 00:01:35;;;;;;;27.08;9.90;;;12.50;99.90;;;;;;5111052;28;20024;-71
2021/11/10 00:04:01;;;;;;;31.05;10.25;;;12.50;99.90;;;;;;5111223;27;20039;-71
2021/11/10 00:06:27;;;;;;;27.30;9.15;;;12.50;99.90;;;;;;5113014;27;20031;-71
2021/11/10 00:08:53;;;;;;;27.88;8.90;;;12.50;99.90;;;;;;5110269;28;20030;-71
2021/11/10 00:11:19;;;;;;;31.00;8.55;;;12.60;99.90;;;;;;5112385;27;20020;-71
2021/11/10 00:13:45;;;;;;;26.15;9.25;;;12.60;99.90;;;;;;5112046;28;20047;-71
2021/11/10 00:16:11;;;;;;;25.08;9.48;;;12.60;99.90;;;;;;5110880;28;20127;-71
2021/11/10 00:18:37;;;;;;;29.92;9.18;;;12.60;99.90;;;;;;5111004;28;20032;-71
2021/11/10 00:21:04;;;;;;;37.67;10.73;;;12.60;99.90;;;;;;5110017;28;20054;-71
2021/11/10 00:23:30;;;;;;;29.55;9.90;;;12.60;99.90;;;;;;5111973;28;20426;-71
2021/11/10 00:25:56;;;;;;;24.80;10.35;;;12.60;99.90;;;;;;5111792;28;20027;-71
2021/11/10 00:28:22;;;;;;;30.48;11.32;;;12.60;99.90;;;;;;5112442;28;20383;-71
2021/11/10 00:30:48;;;;;;;31.55;11.45;;;12.60;99.90;;;;;;5108801;28;20023;-71
2021/11/10 00:33:13;;;;;;;28.13;11.50;;;12.60;99.90;;;;;;5109990;27;20380;-71
2021/11/10 00:35:39;;;;;;;25.73;10.23;;;12.60;99.90;;;;;;5109524;28;20128;-71
2021/11/10 00:38:05;;;;;;;26.15;9.90;;;12.60;99.90;;;;;;5113668;27;20381;-71
2021/11/10 00:40:31;;;;;;;21.10;9.20;;;12.50;99.90;;;;;;5112086;27;20265;-71
2021/11/10 00:42:57;;;;;;;24.38;8.93;;;12.50;99.90;;;;;;5111508;28;20047;-71
2021/11/10 00:45:23;;;;;;;18.60;7.55;;;12.50;99.90;;;;;;5113594;27;20032;-71
2021/11/10 00:47:49;;;;;;;21.48;7.70;;;12.50;99.90;;;;;;5112389;28;20028;-72
2021/11/10 00:50:15;;;;;;;20.35;7.30;;;12.50;99.90;;;;;;5109273;28;20524;-71
2021/11/10 00:52:40;;;;;;;12.93;5.90;;;12.50;99.90;;;;;;5110022;28;20027;-72
2021/11/10 00:55:06;;;;;;;20.92;7.78;;;12.50;99.90;;;;;;5111451;28;20465;-71
2021/11/10 00:57:32;;;;;;;21.30;7.30;;;12.50;99.90;;;;;;5110826;28;20055;-71
2021/11/10 00:59:58;;;;;;;15.13;7.40;;;12.50;99.90;;;;;;5108831;28;20046;-71
2021/11/10 01:02:24;;;;;;;17.27;8.05;;;12.50;99.90;;;;;;5112841;28;20043;-72
2021/11/10 01:04:51;;;;;;;14.95;6.88;;;12.50;99.90;;;;;;5109321;28;20043;-71
2021/11/10 01:07:17;;;;;;;18.65;7.70;;;12.50;99.90;;;;;;5109548;28;20077;-71
2021/11/10 01:09:44;;;;;;;12.40;6.65;;;12.50;99.90;;;;;;5113162;28;20233;-72
2021/11/10 01:12:12;;;;;;;16.10;6.93;;;12.50;99.90;;;;;;5109847;27;20050;-71
2021/11/10 01:14:39;;;;;;;12.35;6.90;;;12.50;99.90;;;;;;5107970;28;20087;-71
2021/11/10 01:17:05;;;;;;;17.75;8.30;;;12.50;99.90;;;;;;5110795;28;20521;-71
2021/11/10 01:19:31;;;;;;;17.13;7.78;;;12.50;99.90;;;;;;5111782;28;20055;-71
2021/11/10 01:21:57;;;;;;;21.42;9.00;;;12.50;99.90;;;;;;5111375;28;20528;-72
2021/11/10 01:24:23;;;;;;;20.98;9.32;;;12.50;99.90;;;;;;5109240;28;20326;-72
2021/11/10 01:26:49;;;;;;;16.67;8.95;;;12.50;99.90;;;;;;5109833;28;20027;-72
2021/11/10 01:29:15;;;;;;;24.70;8.52;;;12.50;99.90;;;;;;5090901;28;20080;-72
2021/11/10 01:31:40;;;;;;;13.90;7.55;;;12.50;99.90;;;;;;5109909;28;20019;-72
2021/11/10 01:34:09;;;;;;;16.15;8.52;;;12.50;99.90;;;;;;5110100;28;20042;-71
2021/11/10 01:36:36;;;;;;;16.23;8.35;;;12.50;99.90;;;;;;5108973;28;20058;-72
2021/11/10 01:39:04;;;;;;;17.67;8.35;;;12.50;99.90;;;;;;5109515;28;20141;-72
2021/11/10 01:41:37;;;;;;;15.90;8.40;;;12.50;99.90;;;;;;5109677;28;20028;-71
2021/11/10 01:44:03;;;;;;;21.02;8.23;;;12.50;99.90;;;;;;5095905;27;20047;-72
2021/11/10 01:46:31;;;;;;;16.67;7.95;;;12.50;99.90;;;;;;5110140;28;20047;-72
2021/11/10 01:48:57;;;;;;;12.98;7.53;;;12.50;99.90;;;;;;5106521;28;20034;-72
2021/11/10 01:51:24;;;;;;;23.15;9.35;;;12.60;99.90;;;;;;5109203;28;20032;-72
2021/11/10 01:53:52;;;;;;;23.30;10.07;;;12.50;99.90;;;;;;5090262;28;20028;-72
2021/11/10 01:56:18;;;;;;;33.03;10.50;;;12.50;99.90;;;;;;5110882;28;20067;-72
2021/11/10 01:58:45;;;;;;;21.63;8.35;;;12.60;99.90;;;;;;5109216;28;20326;-72
2021/11/10 02:01:10;;;;;;;24.98;9.43;;;12.60;99.90;;;;;;5109731;28;20108;-72
2021/11/10 02:03:36;;;;;;;26.80;10.32;;;12.60;99.90;;;;;;5111790;28;20357;-72
2021/11/10 02:06:02;;;;;;;29.33;10.73;;;12.60;99.90;;;;;;5106987;28;20023;-72
2021/11/10 02:08:28;;;;;;;35.75;11.02;;;12.60;99.90;;;;;;5110364;28;20085;-72
2021/11/10 02:10:56;;;;;;;33.47;10.45;;;12.60;99.90;;;;;;5108122;28;20400;-72
2021/11/10 02:13:22;;;;;;;28.95;8.38;;;12.60;99.90;;;;;;5111568;28;20361;-72
2021/11/10 02:15:48;;;;;;;25.35;8.27;;;12.60;99.90;;;;;;5109642;28;20121;-72
2021/11/10 02:18:14;;;;;;;28.88;8.77;;;12.60;99.90;;;;;;5090140;28;20320;-72
2021/11/10 02:20:40;;;;;;;27.45;7.72;;;12.70;99.90;;;;;;5107025;28;20034;-71
2021/11/10 02:23:07;;;;;;;19.85;6.97;;;12.70;99.90;;;;;;5109567;28;20039;-71
2021/11/10 02:25:33;;;;;;;25.70;7.45;;;12.70;99.90;;;;;;5107913;28;20023;-72
2021/11/10 02:28:00;;;;;;;18.92;6.88;;;12.70;99.90;;;;;;5110359;28;20023;-72
2021/11/10 02:30:27;;;;;;;24.10;6.78;;;12.70;99.90;;;;;;5091854;28;20024;-72
2021/11/10 02:33:00;;;;;;;25.00;7.82;;;12.70;99.90;;;;;;5090964;28;20277;-72
2021/11/10 02:35:28;;;;;;;23.38;8.18;;;12.70;99.90;;;;;;5090744;28;20305;-72
2021/11/10 02:37:58;;;;;;;29.88;8.60;;;12.80;99.90;;;;;;5109439;28;20055;-72
2021/11/10 02:40:24;;;;;;;24.38;9.18;;;12.70;99.90;;;;;;5107367;28;20373;-72
2021/11/10 02:42:51;;;;;;;26.35;9.65;;;12.70;99.90;;;;;;5109845;28;20047;-72
2021/11/10 02:45:17;;;;;;;34.13;9.75;;;12.70;99.90;;;;;;5110541;28;20032;-72
2021/11/10 02:47:43;;;;;;;25.88;8.80;;;12.70;99.90;;;;;;5109288;28;20333;-72
2021/11/10 02:50:10;;;;;;;29.80;9.05;;;12.70;99.90;;;;;;5107393;28;20100;-72
2021/11/10 02:52:36;;;;;;;20.15;7.60;;;12.70;99.90;;;;;;5109925;28;20027;-71
2021/11/10 02:55:03;;;;;;;24.90;7.28;;;12.80;99.90;;;;;;5106855;28;20038;-72
2021/11/10 02:57:29;;;;;;;19.65;6.88;;;12.70;99.90;;;;;;5109042;28;20027;-71
2021/11/10 02:59:55;;;;;;;21.50;7.15;;;12.80;99.90;;;;;;5109190;28;20030;-72
2021/11/10 03:02:26;;;;;;;18.67;7.50;;;12.80;99.90;;;;;;5111277;28;20023;-72
2021/11/10 03:04:53;;;;;;;19.52;7.60;;;12.70;99.90;;;;;;5087188;28;20211;-72
2021/11/10 03:07:19;;;;;;;21.77;7.35;;;12.70;99.90;;;;;;5108495;28;20035;-72
2021/11/10 03:09:45;;;;;;;20.55;8.63;;;12.70;99.90;;;;;;5110859;28;20031;-72
2021/11/10 03:12:12;;;;;;;24.27;8.52;;;12.80;99.90;;;;;;5107998;28;20333;-72
2021/11/10 03:14:41;;;;;;;24.27;8.52;;;12.70;99.90;;;;;;5111869;28;20027;-72
2021/11/10 03:17:09;;;;;;;26.30;9.18;;;12.80;99.90;;;;;;5109521;28;20019;-72
2021/11/10 03:19:35;;;;;;;28.65;9.80;;;12.80;99.90;;;;;;5107733;28;20036;-72
2021/11/10 03:22:02;;;;;;;21.52;8.98;;;12.80;99.90;;;;;;5110937;28;20351;-72
2021/11/10 03:24:29;;;;;;;30.90;10.73;;;12.80;99.90;;;;;;5113915;28;20430;-72
2021/11/10 03:26:55;;;;;;;23.33;9.45;;;12.80;99.90;;;;;;5093960;28;20039;-72
2021/11/10 03:29:21;;;;;;;25.52;9.50;;;12.80;99.90;;;;;;5110913;28;20231;-72
2021/11/10 03:31:46;;;;;;;20.98;8.82;;;12.80;99.90;;;;;;5115007;28;20249;-72
2021/11/10 03:34:13;;;;;;;26.60;11.63;;;12.80;99.90;;;;;;5112255;28;20024;-72
2021/11/10 03:36:40;;;;;;;28.10;11.15;;;12.80;99.90;;;;;;5111812;28;20051;-72
2021/11/10 03:39:09;;;;;;;19.60;10.50;;;12.80;99.90;;;;;;5112617;28;20113;-72
2021/11/10 03:41:35;;;;;;;32.65;12.10;;;12.80;99.90;;;;;;5113327;27;20291;-72
2021/11/10 03:44:02;;;;;;;31.33;12.95;;;12.80;99.90;;;;;;5109748;27;20065;-72
2021/11/10 03:46:28;;;;;;;29.95;13.25;;;12.80;99.90;;;;;;5111736;28;20019;-72
2021/11/10 03:48:54;;;;;;;27.95;12.48;;;12.80;99.90;;;;;;5111564;28;20095;-72
2021/11/10 03:51:20;;;;;;;30.02;11.18;;;12.80;99.90;;;;;;5109982;28;20289;-72
2021/11/10 03:53:47;;;;;;;26.75;11.13;;;12.80;99.90;;;;;;5113687;28;20028;-72
2021/11/10 03:56:13;;;;;;;26.33;11.40;;;12.80;99.90;;;;;;5112239;28;20019;-72
2021/11/10 03:58:39;;;;;;;26.00;10.23;;;12.80;99.90;;;;;;5111826;28;20250;-72
2021/11/10 04:01:06;;;;;;;24.05;10.25;;;12.80;99.90;;;;;;5109726;28;20124;-73
2021/11/10 04:03:35;;;;;;;24.23;9.10;;;12.80;99.90;;;;;;5095251;28;20103;-72
2021/11/10 04:06:20;;;;;;;19.52;9.65;;;12.80;99.90;;;;;;5111811;28;20119;-72
2021/11/10 04:08:46;;;;;;;24.25;10.30;;;12.80;99.90;;;;;;5111163;28;20035;-72
2021/11/10 04:11:12;;;;;;;21.90;9.80;;;12.80;99.90;;;;;;5093095;28;20023;-72
2021/11/10 04:13:38;;;;;;;22.92;9.82;;;12.80;99.90;;;;;;5114719;28;20051;-71
2021/11/10 04:16:04;;;;;;;22.20;9.82;;;12.80;99.90;;;;;;5111375;27;20027;-72
2021/11/10 04:18:33;;;;;;;24.58;9.13;;;12.80;99.90;;;;;;5113562;28;20023;-72
2021/11/10 04:21:01;;;;;;;21.75;8.20;;;12.80;99.90;;;;;;5110683;28;20199;-72
2021/11/10 04:23:28;;;;;;;22.42;10.25;;;12.80;99.90;;;;;;5113114;28;20043;-72
2021/11/10 04:25:54;;;;;;;20.45;8.10;;;12.80;99.90;;;;;;5112883;28;20058;-72
2021/11/10 04:28:20;;;;;;;19.15;8.23;;;12.90;99.90;;;;;;5111031;28;20059;-72
2021/11/10 04:30:49;;;;;;;14.82;7.07;;;12.80;99.90;;;;;;5108231;28;20099;-72
2021/11/10 04:33:15;;;;;;;13.20;6.97;;;12.80;99.90;;;;;;5110717;28;20038;-72
2021/11/10 04:35:42;;;;;;;10.80;6.57;;;12.80;99.90;;;;;;5106999;27;20027;-72
2021/11/10 04:38:08;;;;;;;11.98;6.22;;;12.80;99.90;;;;;;5103979;27;20023;-72
2021/11/10 04:40:34;;;;;;;13.98;7.20;;;12.80;99.90;;;;;;5105459;28;20051;-72
2021/11/10 04:43:00;;;;;;;14.98;7.60;;;12.80;99.90;;;;;;5108729;27;20054;-72
2021/11/10 04:45:31;;;;;;;19.85;7.28;;;12.80;99.90;;;;;;5111048;28;20131;-72
2021/11/10 04:47:57;;;;;;;20.77;8.50;;;12.80;99.90;;;;;;5110279;28;20027;-71
2021/11/10 04:50:23;;;;;;;16.77;8.10;;;12.80;99.90;;;;;;5106767;27;20332;-72
2021/11/10 04:52:49;;;;;;;19.42;8.65;;;12.80;99.90;;;;;;5105228;27;20031;-72
2021/11/10 04:55:15;;;;;;;22.42;8.90;;;12.80;99.90;;;;;;5109223;27;20405;-72
2021/11/10 04:57:41;;;;;;;17.27;8.18;;;12.80;99.90;;;;;;5104246;28;20253;-72
2021/11/10 05:00:10;;;;;;;14.98;7.07;;;12.80;99.90;;;;;;5108821;28;20098;-72
2021/11/10 05:02:37;;;;;;;10.38;6.10;;;12.80;99.90;;;;;;5104608;28;20043;-72
2021/11/10 05:05:03;;;;;;;12.77;5.70;;;12.80;99.90;;;;;;5107602;28;20028;-71
2021/11/10 05:07:29;;;;;;;12.18;5.63;;;12.80;99.90;;;;;;5103987;28;20032;-72
2021/11/10 05:09:55;;;;;;;9.93;5.03;;;12.80;99.90;;;;;;5107539;28;20341;-72
2021/11/10 05:12:22;;;;;;;11.70;5.28;;;12.80;99.90;;;;;;5107678;28;20488;-72
2021/11/10 05:14:48;;;;;;;12.68;5.72;;;12.80;99.90;;;;;;5101550;28;20035;-73
2021/11/10 05:17:14;;;;;;;13.57;5.43;;;12.90;99.90;;;;;;5106102;28;20051;-72
2021/11/10 05:19:39;;;;;;;7.55;4.55;;;12.80;99.90;;;;;;5103417;28;20117;-71
2021/11/10 05:22:05;;;;;;;12.65;3.97;;;12.80;99.90;;;;;;5109405;28;20035;-72
2021/11/10 05:24:31;;;;;;;8.75;3.65;;;12.80;99.90;;;;;;5106488;28;20253;-72
2021/11/10 05:26:57;;;;;;;7.35;3.58;;;12.80;99.90;;;;;;5110281;27;20279;-72
2021/11/10 05:29:23;;;;;;;7.05;3.08;;;12.80;99.90;;;;;;5106202;28;20077;-72
2021/11/10 05:31:49;;;;;;;3.90;2.50;;;12.80;99.90;;;;;;5107773;27;20098;-72
2021/11/10 05:34:15;;;;;;;7.60;3.10;;;12.80;99.90;;;;;;5109646;28;20019;-72
2021/11/10 05:36:41;;;;;;;6.78;2.20;;;12.80;99.90;;;;;;5109285;27;20257;-72
2021/11/10 05:39:07;;;;;;;4.00;2.53;;;12.80;99.90;;;;;;5106813;28;20044;-72
2021/11/10 05:41:33;;;;;;;3.92;2.08;;;12.80;99.90;;;;;;5108601;28;20296;-72
2021/11/10 05:43:59;;;;;;;5.20;2.40;;;12.80;99.90;;;;;;5106686;28;20320;-71
2021/11/10 05:46:25;;;;;;;5.72;2.78;;;12.80;99.90;;;;;;5108302;28;20028;-71
2021/11/10 05:48:51;;;;;;;6.50;2.60;;;12.80;99.90;;;;;;5111532;28;20027;-71
2021/11/10 05:51:17;;;;;;;4.75;2.60;;;12.80;99.90;;;;;;5092104;28;20313;-71
2021/11/10 05:53:44;;;;;;;6.82;2.88;;;12.80;99.90;;;;;;5105153;27;20032;-71
2021/11/10 05:56:21;;;;;;;6.60;3.00;;;12.80;99.90;;;;;;5109790;28;20031;-71
2021/11/10 05:58:48;;;;;;;7.43;2.30;;;12.80;99.90;;;;;;5102953;28;20027;-71
2021/11/10 06:01:15;;;;;;;4.70;2.30;;;12.80;99.90;;;;;;5103640;28;20024;-72
2021/11/10 06:03:40;;;;;;;8.23;2.90;;;12.80;99.90;;;;;;5104703;27;20330;-71
2021/11/10 06:06:06;;;;;;;4.03;2.45;;;12.80;99.90;;;;;;5104782;28;20034;-72
2021/11/10 06:08:36;;;;;;;8.90;2.75;;;12.90;99.90;;;;;;5103156;28;20032;-73
2021/11/10 06:11:04;;;;;;;6.18;2.25;;;12.80;99.90;;;;;;5106069;28;20023;-71
2021/11/10 06:13:30;;;;;;;2.85;1.55;;;12.90;99.90;;;;;;5110252;28;20242;-71
2021/11/10 06:15:56;;;;;;;2.63;1.35;;;12.90;99.90;;;;;;5110021;28;20027;-72
2021/11/10 06:18:21;;;;;;;2.85;1.30;;;12.80;99.90;;;;;;5100538;28;20031;-71
2021/11/10 06:20:47;;;;;;;2.78;1.45;;;12.90;99.90;;;;;;5102659;28;20028;-72
2021/11/10 06:23:13;;;;;;;1.55;1.02;;;12.90;99.90;;;;;;5103692;28;20357;-72
2021/11/10 06:25:39;;;;;;;3.15;1.13;;;12.90;99.90;;;;;;5109038;28;20027;-71
2021/11/10 06:28:05;;;;;;;1.42;0.88;;;12.90;99.90;;;;;;5108559;28;20310;-71
2021/11/10 06:30:31;;;;;;;2.78;1.13;;;12.80;99.90;;;;;;5107603;28;20337;-72
2021/11/10 06:32:59;;;;;;;3.35;1.25;;;12.90;99.90;;;;;;5106208;28;20047;-71
2021/11/10 06:35:25;;;;;;;2.03;0.90;;;12.90;99.90;;;;;;5106403;28;20109;-71
2021/11/10 06:37:51;;;;;;;2.10;1.27;;;12.80;99.90;;;;;;5084737;28;20041;-72
2021/11/10 06:40:17;;;;;;;1.33;1.00;;;12.90;99.90;;;;;;5108191;28;20060;-71
2021/11/10 06:42:43;;;;;;;2.90;0.85;;;12.80;99.90;;;;;;5106484;28;20039;-72
2021/11/10 06:45:09;;;;;;;1.20;0.98;;;12.80;99.90;;;;;;5108951;28;20023;-71
2021/11/10 06:47:35;;;;;;;1.30;1.00;;;12.90;99.90;;;;;;5108912;28;20156;-72
2021/11/10 06:50:02;;;;;;;2.55;1.00;;;12.90;99.90;;;;;;5111183;28;20298;-72
2021/11/10 06:52:28;;;;;;;2.67;1.15;;;12.80;99.90;;;;;;5103422;28;20078;-71
2021/11/10 06:54:54;;;;;;;2.90;1.45;;;12.80;99.90;;;;;;5103423;28;20318;-72
2021/11/10 06:57:21;;;;;;;1.42;1.23;;;12.80;99.90;;;;;;5113879;28;20407;-71
2021/11/10 06:59:47;;;;;;;5.03;1.45;;;12.90;99.90;;;;;;5111944;28;20440;-72
2021/11/10 07:02:13;;;;;;;5.35;1.50;;;12.90;99.90;;;;;;5109377;28;20028;-71
2021/11/10 07:04:38;;;;;;;1.75;1.25;;;12.90;99.90;;;;;;5108795;28;20030;-71
2021/11/10 07:07:05;;;;;;;4.22;1.42;;;12.90;99.90;;;;;;5108745;28;20029;-71
2021/11/10 07:09:31;;;;;;;2.10;1.50;;;12.90;99.90;;;;;;5111417;27;20024;-72
2021/11/10 07:11:57;;;;;;;5.50;1.85;;;12.80;99.90;;;;;;5107400;28;20070;-72
2021/11/10 07:14:24;;;;;;;4.28;1.70;;;12.80;99.90;;;;;;5110351;28;20019;-72
2021/11/10 07:16:51;;;;;;;4.85;2.05;;;12.90;99.90;;;;;;5113222;27;20099;-72
2021/11/10 07:19:16;;;;;;;6.15;2.28;;;12.90;99.90;;;;;;5111527;28;20023;-72
2021/11/10 07:21:42;;;;;;;7.15;2.17;;;12.90;99.90;;;;;;5106436;28;20034;-71
2021/11/10 07:24:08;;;;;;;3.60;2.20;;;12.90;99.90;;;;;;5108391;27;20330;-72
2021/11/10 07:26:34;;;;;;;5.63;2.10;;;12.90;99.90;;;;;;5110649;27;20051;-72
2021/11/10 07:29:00;;;;;;;5.03;2.15;;;13.00;99.90;;;;;;5110060;27;20346;-71
2021/11/10 07:31:26;;;;;;;4.35;1.80;;;12.90;99.90;;;;;;5088617;28;20281;-72
2021/11/10 07:33:52;;;;;;;3.97;1.73;;;12.90;99.90;;;;;;5109062;27;20103;-71
2021/11/10 07:36:19;;;;;;;3.95;2.25;;;12.90;99.90;;;;;;5107834;28;20094;-72
2021/11/10 07:38:45;;;;;;;5.03;1.63;;;12.90;99.90;;;;;;5106234;28;20051;-71
2021/11/10 07:41:14;;;;;;;4.10;1.45;;;12.90;99.90;;;;;;5108462;28;20028;-72
2021/11/10 07:47:23;;;;;;;5.80;2.03;;;13.00;99.90;;;;;;5111978;28;20443;-72
2021/11/10 07:49:48;;;;;;;3.22;1.60;;;12.90;99.90;;;;;;5110222;28;20027;-72
2021/11/10 07:56:26;;;;;;;4.85;1.70;;;13.00;99.90;;;;;;5105171;28;20078;-72
2021/11/10 08:02:33;;;;;;;2.92;1.63;;;13.00;99.90;;;;;;5108750;28;20081;-72
2021/11/10 08:05:05;;;;;;;4.32;2.00;;;13.00;99.90;;;;;;5108321;28;20058;-72
2021/11/10 08:07:31;;;;;;;3.80;1.92;;;13.00;99.90;;;;;;5112851;27;20317;-72
2021/11/10 08:09:57;;;;;;;4.40;2.17;;;13.00;99.90;;;;;;5113994;28;20109;-72
2021/11/10 08:12:23;;;;;;;3.22;1.77;;;13.00;99.90;;;;;;5109858;27;20210;-72
2021/11/10 08:14:49;;;;;;;7.35;2.13;;;13.00;99.90;;;;;;5090820;28;20327;-71
2021/11/10 08:17:15;;;;;;;2.38;1.67;;;13.10;99.90;;;;;;5109100;28;20027;-72
2021/11/10 08:19:41;;;;;;;3.30;1.50;;;13.10;99.90;;;;;;5108373;28;20364;-71
2021/11/10 08:22:06;;;;;;;1.92;1.42;;;13.10;99.90;;;;;;5107354;27;20027;-72
2021/11/10 08:24:33;;;;;;;5.35;1.55;;;13.10;99.90;;;;;;5106289;27;20330;-71
2021/11/10 08:26:59;;;;;;;3.58;1.80;;;13.10;99.90;;;;;;5092923;28;20030;-72
2021/11/10 08:29:25;;;;;;;3.85;1.95;;;13.00;99.90;;;;;;5107942;27;20264;-72
2021/11/10 08:31:52;;;;;;;5.65;2.35;;;13.00;99.90;;;;;;5112106;27;20020;-72
2021/11/10 08:34:18;;;;;;;8.00;2.88;;;13.00;99.90;;;;;;5109326;27;20027;-71
2021/11/10 08:36:44;;;;;;;6.35;2.90;;;13.10;99.90;;;;;;5109979;27;20034;-71
2021/11/10 08:39:10;;;;;;;6.38;3.15;;;13.10;99.90;;;;;;5110287;27;20122;-72
2021/11/10 08:41:36;;;;;;;8.88;3.00;;;13.10;99.90;;;;;;5090555;28;20024;-72
2021/11/10 08:44:03;;;;;;;4.82;2.83;;;13.00;99.90;;;;;;5108374;28;20066;-72
2021/11/10 08:46:29;;;;;;;6.40;3.17;;;13.00;99.90;;;;;;5110315;27;20083;-71
2021/11/10 08:48:55;;;;;;;9.45;4.40;;;13.00;99.90;;;;;;5109197;28;20028;-72
2021/11/10 08:51:21;;;;;;;8.13;3.80;;;13.00;99.90;;;;;;5111217;28;21250;-72
2021/11/10 08:53:48;;;;;;;11.13;4.35;;;13.00;99.90;;;;;;5110071;28;20034;-72
2021/11/10 08:56:15;;;;;;;14.88;4.80;;;13.10;99.90;;;;;;5109767;27;20349;-72
2021/11/10 08:58:41;;;;;;;20.42;5.35;;;13.10;99.90;;;;;;5109985;28;20355;-71
2021/11/10 09:01:07;;;;;;;13.43;4.88;;;13.00;99.90;;;;;;5107198;27;20036;-72
2021/11/10 09:03:33;;;;;;;15.85;3.85;;;13.00;99.90;;;;;;5108586;28;20340;-72
2021/11/10 09:05:59;;;;;;;16.38;4.90;;;12.90;99.90;;;;;;5111433;28;20101;-72
2021/11/10 09:08:26;;;;;;;16.30;4.40;;;12.90;99.90;;;;;;5108324;28;20031;-72
2021/11/10 09:10:52;;;;;;;14.32;3.85;;;12.90;99.90;;;;;;5105688;27;20069;-72
2021/11/10 09:13:19;;;;;;;18.92;4.40;;;12.90;99.90;;;;;;5108341;27;20031;-72
2021/11/10 09:15:45;;;;;;;16.83;4.18;;;12.80;99.90;;;;;;5109798;28;20051;-71
2021/11/10 09:18:11;;;;;;;16.38;3.45;;;12.80;99.90;;;;;;5109192;28;20027;-72
2021/11/10 09:20:39;;;;;;;13.95;3.72;;;12.90;99.90;;;;;;5110921;28;20119;-72
2021/11/10 09:23:08;;;;;;;9.05;2.90;;;12.90;99.90;;;;;;5107783;28;20036;-72
2021/11/10 09:25:36;;;;;;;14.13;3.28;;;12.90;99.90;;;;;;5109668;28;20261;-72
2021/11/10 09:28:04;;;;;;;16.23;2.47;;;12.90;99.90;;;;;;5106027;28;20031;-72
2021/11/10 09:30:30;;;;;;;9.35;2.53;;;13.00;99.90;;;;;;5086223;28;20382;-72
2021/11/10 09:32:57;;;;;;;10.40;3.13;;;13.00;99.90;;;;;;5109197;27;20130;-72
2021/11/10 09:35:25;;;;;;;7.28;2.00;;;13.10;99.90;;;;;;5107396;28;20440;-71
2021/11/10 09:37:56;;;;;;;12.00;3.10;;;13.10;99.90;;;;;;5108461;28;20046;-72
2021/11/10 09:40:26;;;;;;;10.40;2.25;;;13.10;99.90;;;;;;5108701;27;20057;-72
2021/11/10 09:42:52;;;;;;;8.07;2.00;;;13.10;99.90;;;;;;5108240;28;20043;-72
2021/11/10 09:45:20;;;;;;;7.05;2.13;;;13.10;99.90;;;;;;5107291;27;20028;-72
2021/11/10 09:47:47;;;;;;;8.55;2.78;;;13.10;99.90;;;;;;5104721;28;20050;-72
2021/11/10 09:50:17;;;;;;;7.70;3.13;;;13.10;99.90;;;;;;5088495;28;20314;-72
2021/11/10 09:52:44;;;;;;;11.85;2.83;;;13.20;99.90;;;;;;5089200;28;20034;-72
2021/11/10 09:55:11;;;;;;;12.43;2.83;;;13.20;99.90;;;;;;5108718;28;20357;-72
2021/11/10 09:57:39;;;;;;;11.98;3.42;;;13.20;99.90;;;;;;5108895;28;20098;-72
2021/11/10 10:00:19;;;;;;;8.80;2.20;;;13.20;99.90;;;;;;5108785;28;20258;-72
2021/11/10 10:02:46;;;;;;;10.90;2.63;;;13.20;99.90;;;;;;5087597;28;20106;-71
2021/11/10 10:05:14;;;;;;;12.77;2.78;;;13.20;99.90;;;;;;5089954;28;20095;-72
2021/11/10 10:07:42;;;;;;;10.60;2.50;;;13.20;99.90;;;;;;5105535;27;20031;-71
2021/11/10 10:10:08;;;;;;;8.82;2.00;;;13.20;99.90;;;;;;5109161;28;20116;-72
2021/11/10 10:12:34;;;;;;;7.80;1.83;;;13.20;99.90;;;;;;5107055;28;20027;-72
2021/11/10 10:15:00;;;;;;;5.68;1.92;;;13.30;99.90;;;;;;5109264;27;20054;-71
2021/11/10 10:17:39;;;;;;;7.53;1.80;;;13.30;99.90;;;;;;5090321;28;20376;-72
2021/11/10 10:20:20;;;;;;;7.00;2.28;;;13.30;99.90;;;;;;5106640;28;20035;-72
2021/11/10 10:22:48;;;;;;;6.68;1.90;;;13.30;99.90;;;;;;5106398;28;20035;-72
2021/11/10 10:25:14;;;;;;;9.73;1.67;;;13.20;99.90;;;;;;5103277;28;20031;-72
2021/11/10 10:27:56;;;;;;;9.63;1.50;;;13.20;99.90;;;;;;5089261;28;20046;-72
2021/11/10 10:30:43;;;;;;;5.72;1.50;;;13.20;99.90;;;;;;5101791;28;20364;-72
2021/11/10 10:33:21;;;;;;;11.63;2.53;;;13.20;99.90;;;;;;5106372;28;20023;-72
2021/11/10 10:35:49;;;;;;;9.48;1.98;;;13.20;99.90;;;;;;5106348;28;20253;-72
2021/11/10 10:38:18;;;;;;;5.53;1.63;;;13.20;99.90;;;;;;5107766;28;20553;-71
2021/11/10 10:40:46;;;;;;;14.63;2.33;;;13.20;99.90;;;;;;5109672;28;20042;-72
2021/11/10 10:43:13;;;;;;;7.53;2.00;;;13.20;99.90;;;;;;5085792;28;20208;-72
2021/11/10 10:45:41;;;;;;;11.23;2.58;;;13.30;99.90;;;;;;5108360;28;20098;-72
2021/11/10 10:48:16;;;;;;;13.85;2.75;;;13.30;99.90;;;;;;5107743;28;20038;-72
2021/11/10 10:50:53;;;;;;;9.63;2.40;;;13.30;99.90;;;;;;5087545;28;20099;-71
2021/11/10 10:53:31;;;;;;;9.13;2.65;;;13.30;99.90;;;;;;5106966;28;20043;-72
2021/11/10 10:55:57;;;;;;;10.35;2.42;;;13.40;99.90;;;;;;5107910;28;20028;-72
2021/11/10 10:58:51;;;;;;;12.82;2.20;;;13.30;99.90;;;;;;5108472;28;20250;-72
2021/11/10 11:01:24;;;;;;;6.63;2.03;;;13.40;99.90;;;;;;5106917;28;20039;-71
2021/11/10 11:04:13;;;;;;;6.53;2.30;;;13.30;99.90;;;;;;5108735;28;20394;-71
2021/11/10 11:07:06;;;;;;;9.38;2.25;;;13.40;99.90;;;;;;5104121;28;20064;-71
2021/11/10 11:09:44;;;;;;;9.23;2.67;;;13.30;99.90;;;;;;5096380;28;20051;-71
2021/11/10 11:12:21;;;;;;;8.95;2.30;;;13.30;99.90;;;;;;5107580;28;20130;-72
2021/11/10 11:15:02;;;;;;;8.23;2.60;;;13.30;99.90;;;;;;5108218;28;20226;-72
2021/11/10 11:17:37;;;;;;;7.22;2.70;;;13.20;99.90;;;;;;5108613;28;20019;-72
2021/11/10 11:20:12;;;;;;;6.85;2.30;;;13.20;99.90;;;;;;5109028;28;20265;-72
2021/11/10 11:22:52;;;;;;;10.98;2.67;;;13.20;99.90;;;;;;5107615;28;20031;-72
2021/11/10 11:25:28;;;;;;;9.65;2.10;;;13.10;99.90;;;;;;5106291;28;20020;-72
2021/11/10 11:27:57;;;;;;;12.63;2.53;;;13.10;99.90;;;;;;5105904;28;20028;-71
2021/11/10 11:30:30;;;;;;;14.33;3.40;;;13.20;99.90;;;;;;5100856;28;20027;-71
2021/11/10 11:33:00;;;;;;;16.38;3.83;;;13.20;99.90;;;;;;5106736;28;20454;-71
2021/11/10 11:35:35;;;;;;;15.25;2.70;;;13.20;99.90;;;;;;5108037;28;20040;-71
2021/11/10 11:38:19;;;;;;;9.65;2.55;;;13.20;99.90;;;;;;5084206;28;20344;-71
2021/11/10 11:40:48;;;;;;;15.10;2.78;;;13.20;99.90;;;;;;5104756;28;20410;-71
2021/11/10 11:43:16;;;;;;;10.10;2.72;;;13.20;99.90;;;;;;5104961;28;20061;-71
2021/11/10 11:45:46;;;;;;;10.23;2.28;;;13.30;99.90;;;;;;5098684;28;20114;-72
2021/11/10 11:48:14;;;;;;;9.85;2.35;;;13.40;99.90;;;;;;5107983;27;20051;-72
2021/11/10 11:50:40;;;;;;;10.45;2.63;;;13.40;99.90;;;;;;5113416;28;20031;-72
2021/11/10 11:53:07;;;;;;;14.18;2.85;;;13.50;99.90;;;;;;5110255;28;20453;-72
2021/11/10 11:55:44;;;;;;;7.78;2.45;;;13.60;99.90;;;;;;5111191;28;20058;-71
2021/11/10 11:58:20;;;;;;;14.13;3.55;;;13.60;99.90;;;;;;5109673;27;20033;-71
2021/11/10 12:01:03;;;;;;;14.07;3.75;;;13.70;99.90;;;;;;5102226;28;20372;-71
2021/11/10 12:03:41;;;;;;;13.55;3.58;;;13.80;99.90;;;;;;5110896;28;20361;-71
2021/11/10 12:06:07;;;;;;;13.80;3.00;;;13.80;99.90;;;;;;5112739;27;20332;-71
2021/11/10 12:08:46;;;;;;;13.60;2.85;;;13.80;99.90;;;;;;5110579;28;20364;-71
2021/11/10 12:11:29;;;;;;;11.40;3.50;;;13.80;99.90;;;;;;5111834;28;20058;-71
2021/11/10 12:13:58;;;;;;;16.40;3.97;;;13.80;99.90;;;;;;5109738;28;20039;-72
2021/11/10 12:16:24;;;;;;;19.67;5.05;;;13.80;99.90;;;;;;5112568;28;20031;-71
2021/11/10 12:18:57;;;;;;;18.27;4.03;;;13.80;99.90;;;;;;5111178;28;20023;-71
2021/11/10 12:21:39;;;;;;;14.32;3.78;;;13.80;99.90;;;;;;5108345;27;20027;-71
2021/11/10 12:24:10;;;;;;;17.38;3.75;;;13.90;99.90;;;;;;5110961;28;20040;-71
2021/11/10 12:27:16;;;;;;;13.90;3.78;;;13.80;99.90;;;;;;5108297;28;20128;-71
2021/11/10 12:29:47;;;;;;;18.98;3.00;;;13.80;99.90;;;;;;5111402;28;20199;-71
2021/11/10 12:32:14;;;;;;;13.98;4.13;;;13.80;99.90;;;;;;5111298;28;20434;-71
2021/11/10 12:34:40;;;;;;;16.67;3.47;;;13.80;99.90;;;;;;5108826;28;20098;-71
2021/11/10 12:37:09;;;;;;;13.88;3.30;;;13.80;99.90;;;;;;5111152;28;20277;-71
2021/11/10 12:39:43;;;;;;;14.98;3.47;;;13.70;99.90;;;;;;5112259;27;20051;-71
2021/11/10 12:42:14;;;;;;;15.02;3.78;;;13.60;99.90;;;;;;5109089;27;20032;-71
2021/11/10 12:44:47;;;;;;;15.98;3.40;;;13.60;99.90;;;;;;5109953;27;20378;-71
2021/11/10 12:47:36;;;;;;;17.17;3.55;;;13.60;99.90;;;;;;5105328;28;20353;-71
2021/11/10 12:50:23;;;;;;;15.07;3.30;;;13.60;99.90;;;;;;5106467;28;20098;-71
2021/11/10 12:52:51;;;;;;;15.43;3.03;;;13.60;99.90;;;;;;5106572;27;20086;-71
2021/11/10 12:55:20;;;;;;;20.73;4.13;;;13.50;99.90;;;;;;5107656;28;20028;-71
2021/11/10 12:57:46;;;;;;;13.30;3.17;;;13.50;99.90;;;;;;5110367;28;20024;-71